createdAt,value
2023-02-14T00:00:54.006Z,0.93
2023-02-14T00:03:20.601Z,0.90
2023-02-14T00:05:47.176Z,1.08
2023-02-14T00:08:13.774Z,1.03
2023-02-14T00:10:40.317Z,0.88
2023-02-14T00:13:06.890Z,1.10
2023-02-14T00:15:33.508Z,1.03
2023-02-14T00:18:00.101Z,0.90
2023-02-14T00:20:28.070Z,1.02
2023-02-14T00:22:55.144Z,1.00
2023-02-14T00:25:21.917Z,0.86
2023-02-14T00:27:48.499Z,0.97
2023-02-14T00:30:15.525Z,0.90
2023-02-14T00:32:42.933Z,0.90
2023-02-14T00:35:10.227Z,0.91
2023-02-14T00:37:36.961Z,0.79
2023-02-14T00:40:05.287Z,0.82
2023-02-14T00:42:31.882Z,0.77
2023-02-14T00:44:58.531Z,0.63
2023-02-14T00:47:25.228Z,0.78
2023-02-14T00:49:51.886Z,0.80
2023-02-14T00:52:18.593Z,0.75
2023-02-14T00:54:45.234Z,0.74
2023-02-14T00:57:11.857Z,0.71
2023-02-14T00:59:38.455Z,0.67
2023-02-14T01:02:05.196Z,0.69
2023-02-14T01:04:31.933Z,0.58
2023-02-14T01:06:58.492Z,0.51
2023-02-14T01:09:25.058Z,0.55
2023-02-14T01:11:51.836Z,0.58
2023-02-14T01:14:18.391Z,0.57
2023-02-14T01:16:45.188Z,0.44
2023-02-14T01:19:11.943Z,0.42
2023-02-14T01:21:38.589Z,0.54
2023-02-14T01:24:07.374Z,0.55
2023-02-14T01:26:35.286Z,0.53
2023-02-14T01:29:02.907Z,0.38
2023-02-14T01:31:33.069Z,0.48
2023-02-14T01:34:00.698Z,0.31
2023-02-14T01:36:30.502Z,0.48
2023-02-14T01:38:59.836Z,0.47
2023-02-14T01:41:29.190Z,0.43
2023-02-14T01:44:04.177Z,0.44
2023-02-14T01:46:32.126Z,0.43
2023-02-14T01:49:13.716Z,0.43
2023-02-14T01:51:45.213Z,0.40
2023-02-14T01:54:12.430Z,0.29
2023-02-14T01:56:43.179Z,0.37
2023-02-14T01:59:15.909Z,0.37
2023-02-14T02:01:42.803Z,0.34
2023-02-14T02:04:16.184Z,0.34
2023-02-14T02:06:48.777Z,0.19
2023-02-14T02:09:20.328Z,0.26
2023-02-14T02:11:46.960Z,0.33
2023-02-14T02:14:21.789Z,0.33
2023-02-14T02:17:19.173Z,0.32
2023-02-14T02:20:04.516Z,0.32
2023-02-14T02:22:40.430Z,0.29
2023-02-14T02:25:12.811Z,0.26
2023-02-14T02:28:03.466Z,0.24
2023-02-14T02:30:49.034Z,0.22
2023-02-14T02:33:37.638Z,0.18
2023-02-14T02:36:04.207Z,0.15
2023-02-14T02:38:45.053Z,0.11
2023-02-14T02:41:30.334Z,0.06
2023-02-14T02:44:12.340Z,0.02
2023-02-14T02:46:52.685Z,0.03
2023-02-14T02:49:46.952Z,0.03
2023-02-14T02:52:56.624Z,0.03
2023-02-14T02:55:51.087Z,-0.07
2023-02-14T02:58:20.484Z,-0.01
2023-02-14T03:00:51.012Z,-0.05
2023-02-14T03:03:38.309Z,-0.04
2023-02-14T03:06:05.037Z,-0.04
2023-02-14T03:08:31.594Z,-0.07
2023-02-14T03:10:59.320Z,-0.11
2023-02-14T03:13:51.670Z,-0.12
2023-02-14T03:16:27.325Z,-0.22
2023-02-14T03:19:36.327Z,-0.18
2023-02-14T03:22:27.060Z,-0.23
2023-02-14T03:25:11.608Z,-0.29
2023-02-14T03:28:04.142Z,-0.25
2023-02-14T03:30:56.717Z,-0.26
2023-02-14T03:33:32.173Z,-0.26
2023-02-14T03:36:06.756Z,-0.26
2023-02-14T03:38:42.212Z,-0.27
2023-02-14T03:41:14.433Z,-0.31
2023-02-14T03:43:50.026Z,-0.37
2023-02-14T03:46:22.794Z,-0.43
2023-02-14T03:48:51.739Z,-0.42
2023-02-14T03:51:20.650Z,-0.65
2023-02-14T03:53:53.404Z,-0.53
2023-02-14T03:56:32.469Z,-0.70
2023-02-14T03:59:06.203Z,-0.56
2023-02-14T04:01:51.556Z,-0.55
2023-02-14T04:04:19.210Z,-0.58
2023-02-14T04:06:45.806Z,-0.65
2023-02-14T04:09:12.795Z,-0.72
2023-02-14T04:11:39.531Z,-0.67
2023-02-14T04:14:06.564Z,-0.68
2023-02-14T04:16:55.545Z,-0.79
2023-02-14T04:19:24.918Z,-0.72
2023-02-14T04:21:52.502Z,-0.77
2023-02-14T04:24:19.894Z,-0.78
2023-02-14T04:27:10.108Z,-0.80
2023-02-14T04:29:46.759Z,-0.86
2023-02-14T04:32:16.667Z,-0.87
2023-02-14T04:34:43.761Z,-0.87
2023-02-14T04:37:10.491Z,-0.91
2023-02-14T04:39:37.452Z,-0.91
2023-02-14T04:42:05.309Z,-0.89
2023-02-14T04:44:33.926Z,-0.92
2023-02-14T04:47:01.648Z,-0.88
2023-02-14T04:49:28.217Z,-0.90
2023-02-14T04:51:54.828Z,-0.91
2023-02-14T04:54:21.468Z,-0.92
2023-02-14T04:56:48.175Z,-0.94
2023-02-14T04:59:14.903Z,-0.98
2023-02-14T05:01:42.208Z,-0.98
2023-02-14T05:04:09.326Z,-1.12
2023-02-14T05:06:36.030Z,-1.03
2023-02-14T05:09:03.455Z,-1.01
2023-02-14T05:11:30.317Z,-1.00
2023-02-14T05:13:57.021Z,-1.11
2023-02-14T05:16:24.358Z,-1.07
2023-02-14T05:18:51.119Z,-1.03
2023-02-14T05:21:17.693Z,-1.05
2023-02-14T05:23:44.546Z,-1.07
2023-02-14T05:26:11.194Z,-1.08
2023-02-14T05:28:37.745Z,-1.09
2023-02-14T05:31:04.672Z,-1.10
2023-02-14T05:33:31.298Z,-1.17
2023-02-14T05:36:02.808Z,-1.07
2023-02-14T05:38:30.277Z,-1.10
2023-02-14T05:40:56.995Z,-1.17
2023-02-14T05:43:23.700Z,-1.14
2023-02-14T05:45:50.441Z,-1.01
2023-02-14T05:48:17.126Z,-1.01
2023-02-14T05:50:45.246Z,-0.98
2023-02-14T05:53:12.651Z,-0.93
2023-02-14T05:55:39.452Z,-0.99
2023-02-14T05:58:06.317Z,-0.94
2023-02-14T06:00:33.177Z,-0.92
2023-02-14T06:03:00.269Z,-0.93
2023-02-14T06:05:27.204Z,-0.96
2023-02-14T06:07:53.729Z,-0.94
2023-02-14T06:10:22.158Z,-0.91
2023-02-14T06:12:49.990Z,-0.91
2023-02-14T06:15:17.070Z,-0.92
2023-02-14T06:17:44.013Z,-0.96
2023-02-14T06:20:11.706Z,-1.01
2023-02-14T06:22:39.257Z,-0.92
2023-02-14T06:25:06.565Z,-0.93
2023-02-14T06:27:33.554Z,-0.96
2023-02-14T06:30:00.383Z,-1.00
2023-02-14T06:32:27.047Z,-0.98
2023-02-14T06:34:53.573Z,-0.99
2023-02-14T06:37:20.262Z,-0.98
2023-02-14T06:39:47.064Z,-1.01
2023-02-14T06:42:13.944Z,-1.10
2023-02-14T06:44:40.619Z,-1.16
2023-02-14T06:47:08.512Z,-0.96
2023-02-14T06:49:35.406Z,-0.94
2023-02-14T06:52:02.461Z,-0.96
2023-02-14T06:54:29.199Z,-0.97
2023-02-14T06:56:55.729Z,-0.98
2023-02-14T06:59:22.703Z,-1.03
2023-02-14T07:01:49.247Z,-0.98
2023-02-14T07:04:16.066Z,-1.01
2023-02-14T07:06:42.622Z,-0.92
2023-02-14T07:09:09.203Z,-0.97
2023-02-14T07:11:35.817Z,-0.94
2023-02-14T07:14:02.375Z,-1.17
2023-02-14T07:16:29.036Z,-1.04
2023-02-14T07:18:55.631Z,-0.88
2023-02-14T07:21:22.189Z,-0.92
2023-02-14T07:23:50.089Z,-0.83
2023-02-14T07:26:18.224Z,-0.77
2023-02-14T07:28:45.888Z,-0.76
2023-02-14T07:31:12.887Z,-0.72
2023-02-14T07:33:39.508Z,-0.74
2023-02-14T07:36:08.064Z,-0.67
2023-02-14T07:38:35.488Z,-0.60
2023-02-14T07:41:02.620Z,-0.52
2023-02-14T07:43:29.293Z,-0.51
2023-02-14T07:45:58.711Z,-0.51
2023-02-14T07:48:25.323Z,-0.39
2023-02-14T07:50:51.845Z,-0.37
2023-02-14T07:53:18.588Z,-0.27
2023-02-14T07:55:49.692Z,-0.05
2023-02-14T07:58:16.435Z,-0.01
2023-02-14T08:00:43.188Z,0.01
2023-02-14T08:03:09.786Z,0.07
2023-02-14T08:05:36.327Z,0.07
2023-02-14T08:08:02.855Z,0.03
2023-02-14T08:10:29.465Z,0.28
2023-02-14T08:12:58.860Z,0.32
2023-02-14T08:15:52.688Z,0.44
2023-02-14T08:18:21.416Z,0.49
2023-02-14T08:20:51.304Z,0.82
2023-02-14T08:23:19.753Z,0.95
2023-02-14T08:25:48.148Z,1.07
2023-02-14T08:28:15.175Z,1.08
2023-02-14T08:30:43.265Z,1.13
2023-02-14T08:33:09.937Z,1.11
2023-02-14T08:35:36.830Z,1.22
2023-02-14T08:38:04.289Z,1.31
2023-02-14T08:40:31.265Z,1.43
2023-02-14T08:42:57.850Z,1.52
2023-02-14T08:45:24.464Z,1.66
2023-02-14T08:47:51.081Z,1.74
2023-02-14T08:50:18.775Z,1.98
2023-02-14T08:52:45.764Z,2.03
2023-02-14T08:55:13.620Z,1.81
2023-02-14T08:57:40.823Z,2.08
2023-02-14T09:00:08.572Z,2.17
2023-02-14T09:02:35.380Z,2.25
2023-02-14T09:05:01.925Z,2.33
2023-02-14T09:07:28.558Z,2.61
2023-02-14T09:09:55.269Z,2.69
2023-02-14T09:12:21.957Z,2.81
2023-02-14T09:14:48.688Z,2.83
2023-02-14T09:17:16.364Z,2.88
2023-02-14T09:19:43.247Z,2.84
2023-02-14T09:22:11.558Z,2.94
2023-02-14T09:24:39.554Z,3.01
2023-02-14T09:27:06.612Z,3.22
2023-02-14T09:29:33.767Z,3.19
2023-02-14T09:32:01.805Z,3.58
2023-02-14T09:34:48.177Z,3.56
2023-02-14T09:37:15.307Z,3.58
2023-02-14T09:39:41.911Z,3.57
2023-02-14T09:42:36.459Z,3.89
2023-02-14T09:45:05.581Z,3.98
2023-02-14T09:47:55.389Z,4.09
2023-02-14T09:50:31.641Z,4.01
2023-02-14T09:53:03.240Z,4.02
2023-02-14T09:55:40.516Z,4.23
2023-02-14T09:58:22.940Z,4.34
2023-02-14T10:01:00.608Z,4.43
2023-02-14T10:03:33.452Z,4.48
2023-02-14T10:06:18.605Z,4.52
2023-02-14T10:09:22.397Z,4.55
2023-02-14T10:11:50.452Z,4.74
2023-02-14T10:14:30.918Z,4.90
2023-02-14T10:17:13.832Z,4.83
2023-02-14T10:20:07.209Z,4.90
2023-02-14T10:22:46.304Z,4.90
2023-02-14T10:25:31.578Z,5.08
2023-02-14T10:28:01.403Z,5.28
2023-02-14T10:30:35.616Z,5.22
2023-02-14T10:33:22.845Z,5.14
2023-02-14T10:35:52.442Z,5.44
2023-02-14T10:38:34.932Z,5.42
2023-02-14T10:41:25.837Z,5.42
2023-02-14T10:44:30.719Z,5.62
2023-02-14T10:47:43.615Z,5.77
2023-02-14T10:50:10.127Z,5.93
2023-02-14T10:52:50.665Z,5.91
2023-02-14T10:55:34.466Z,6.11
2023-02-14T10:58:04.311Z,6.29
2023-02-14T11:00:38.661Z,6.34
2023-02-14T11:03:08.653Z,6.46
2023-02-14T11:05:39.490Z,6.52
2023-02-14T11:08:27.360Z,6.74
2023-02-14T11:11:21.904Z,6.74
2023-02-14T11:13:48.790Z,6.99
2023-02-14T11:16:37.179Z,7.07
2023-02-14T11:19:15.686Z,7.18
2023-02-14T11:21:44.782Z,7.31
2023-02-14T11:24:35.067Z,7.31
2023-02-14T11:27:04.459Z,7.38
2023-02-14T11:29:36.243Z,7.44
2023-02-14T11:32:13.624Z,7.41
2023-02-14T11:35:03.968Z,7.47
2023-02-14T11:37:34.519Z,7.56
2023-02-14T11:40:02.321Z,7.67
2023-02-14T11:42:41.448Z,7.71
2023-02-14T11:45:34.174Z,7.80
2023-02-14T11:48:06.450Z,7.74
2023-02-14T11:50:33.009Z,7.66
2023-02-14T11:53:00.047Z,7.56
2023-02-14T11:55:29.982Z,7.79
2023-02-14T11:57:57.841Z,7.79
2023-02-14T12:00:27.110Z,7.62
2023-02-14T12:02:55.712Z,7.91
2023-02-14T12:05:32.154Z,7.96
2023-02-14T12:08:02.321Z,7.89
2023-02-14T12:10:32.543Z,8.19
2023-02-14T12:13:10.573Z,8.18
2023-02-14T12:15:55.381Z,8.29
2023-02-14T12:18:42.515Z,8.33
2023-02-14T12:21:28.796Z,8.40
2023-02-14T12:24:24.302Z,8.43
2023-02-14T12:27:27.832Z,8.68
2023-02-14T12:30:13.672Z,8.58
2023-02-14T12:32:49.150Z,8.64
2023-02-14T12:35:40.992Z,8.87
2023-02-14T12:38:19.685Z,9.07
2023-02-14T12:41:01.310Z,9.01
2023-02-14T12:43:51.447Z,8.98
2023-02-14T12:46:37.095Z,9.06
2023-02-14T12:49:03.690Z,9.20
2023-02-14T12:51:34.990Z,9.09
2023-02-14T12:54:27.017Z,8.99
2023-02-14T12:56:56.794Z,9.14
2023-02-14T12:59:50.957Z,8.94
2023-02-14T13:02:41.810Z,9.14
2023-02-14T13:05:30.715Z,9.13
2023-02-14T13:08:42.333Z,9.21
2023-02-14T13:11:29.174Z,9.38
2023-02-14T13:14:13.555Z,9.27
2023-02-14T13:16:54.747Z,9.17
2023-02-14T13:19:41.606Z,9.45
2023-02-14T13:22:16.430Z,9.62
2023-02-14T13:24:46.277Z,9.76
2023-02-14T13:27:22.193Z,9.81
2023-02-14T13:29:56.326Z,9.76
2023-02-14T13:32:28.684Z,9.68
2023-02-14T13:34:56.778Z,9.75
2023-02-14T13:37:27.479Z,9.62
2023-02-14T13:40:25.592Z,9.66
2023-02-14T13:42:55.556Z,9.72
2023-02-14T13:45:40.003Z,9.84
2023-02-14T13:48:20.591Z,9.86
2023-02-14T13:50:58.575Z,9.75
2023-02-14T13:53:33.319Z,9.64
2023-02-14T13:56:00.800Z,9.70
2023-02-14T13:58:27.848Z,9.86
2023-02-14T14:00:56.050Z,9.95
2023-02-14T14:03:28.942Z,9.97
2023-02-14T14:06:05.783Z,9.97
2023-02-14T14:08:32.468Z,9.81
2023-02-14T14:11:02.060Z,9.57
2023-02-14T14:13:40.925Z,9.63
2023-02-14T14:16:29.066Z,9.59
2023-02-14T14:19:00.590Z,9.57
2023-02-14T14:21:43.074Z,9.59
2023-02-14T14:24:28.184Z,9.72
2023-02-14T14:27:06.740Z,9.87
2023-02-14T14:29:46.092Z,9.85
2023-02-14T14:32:19.438Z,9.71
2023-02-14T14:34:53.742Z,9.56
2023-02-14T14:37:28.737Z,9.66
2023-02-14T14:40:01.526Z,9.73
2023-02-14T14:42:32.285Z,9.68
2023-02-14T14:45:02.766Z,9.60
2023-02-14T14:47:37.931Z,9.60
2023-02-14T14:50:10.258Z,9.62
2023-02-14T14:52:43.848Z,9.44
2023-02-14T14:55:23.059Z,9.40
2023-02-14T14:57:58.131Z,9.46
2023-02-14T15:00:27.240Z,9.63
2023-02-14T15:03:12.298Z,9.59
2023-02-14T15:05:51.155Z,9.60
2023-02-14T15:08:32.812Z,9.54
2023-02-14T15:11:36.700Z,9.51
2023-02-14T15:14:06.512Z,9.34
2023-02-14T15:16:42.014Z,9.20
2023-02-14T15:19:12.430Z,8.97
2023-02-14T15:21:44.508Z,9.15
2023-02-14T15:24:14.653Z,9.12
2023-02-14T15:26:43.834Z,9.19
2023-02-14T15:29:30.415Z,9.14
2023-02-14T15:32:00.460Z,9.00
2023-02-14T15:34:33.030Z,8.79
2023-02-14T15:37:06.182Z,8.76
2023-02-14T15:39:37.987Z,8.85
2023-02-14T15:42:06.057Z,8.76
2023-02-14T15:44:32.822Z,8.77
2023-02-14T15:47:03.664Z,8.77
2023-02-14T15:49:35.634Z,8.71
2023-02-14T15:52:05.010Z,8.60
2023-02-14T15:54:31.903Z,8.55
2023-02-14T15:56:59.098Z,8.27
2023-02-14T15:59:31.023Z,8.27
2023-02-14T16:02:01.874Z,7.92
2023-02-14T16:04:32.558Z,7.95
2023-02-14T16:07:20.711Z,8.16
2023-02-14T16:09:48.349Z,7.82
2023-02-14T16:12:36.301Z,7.79
2023-02-14T16:15:15.075Z,7.84
2023-02-14T16:17:44.064Z,7.69
2023-02-14T16:20:39.964Z,7.64
2023-02-14T16:23:15.925Z,7.60
2023-02-14T16:25:42.465Z,7.53
2023-02-14T16:28:09.334Z,7.39
2023-02-14T16:30:37.990Z,7.37
2023-02-14T16:33:07.266Z,7.05
2023-02-14T16:35:34.005Z,7.09
2023-02-14T16:38:00.678Z,7.07
2023-02-14T16:40:28.734Z,6.99
2023-02-14T16:42:55.426Z,6.76
2023-02-14T16:45:24.077Z,6.74
2023-02-14T16:47:50.773Z,6.65
2023-02-14T16:50:19.328Z,6.41
2023-02-14T16:52:50.886Z,6.44
2023-02-14T16:55:20.119Z,6.31
2023-02-14T16:57:53.164Z,6.17
2023-02-14T17:00:20.102Z,6.22
2023-02-14T17:02:46.784Z,6.19
2023-02-14T17:05:13.603Z,5.94
2023-02-14T17:07:43.774Z,6.04
2023-02-14T17:10:17.597Z,5.92
2023-02-14T17:12:47.547Z,5.85
2023-02-14T17:15:18.122Z,5.80
2023-02-14T17:17:47.237Z,5.68
2023-02-14T17:20:14.808Z,5.39
2023-02-14T17:22:44.621Z,5.53
2023-02-14T17:25:11.466Z,5.46
2023-02-14T17:27:38.545Z,5.43
2023-02-14T17:30:05.747Z,5.33
2023-02-14T17:32:32.289Z,5.29
2023-02-14T17:34:58.904Z,5.17
2023-02-14T17:37:25.618Z,5.13
2023-02-14T17:39:53.271Z,5.09
2023-02-14T17:42:19.912Z,5.00
2023-02-14T17:44:46.466Z,4.95
2023-02-14T17:47:14.827Z,4.73
2023-02-14T17:49:47.617Z,4.54
2023-02-14T17:52:17.550Z,4.71
2023-02-14T17:54:47.329Z,4.63
2023-02-14T17:57:14.926Z,4.55
2023-02-14T17:59:47.098Z,4.60
2023-02-14T18:02:28.825Z,4.44
2023-02-14T18:04:55.598Z,4.48
2023-02-14T18:07:26.198Z,4.16
2023-02-14T18:09:52.771Z,4.42
2023-02-14T18:12:19.334Z,4.27
2023-02-14T18:14:45.992Z,4.15
2023-02-14T18:17:13.720Z,3.99
2023-02-14T18:19:40.560Z,4.18
2023-02-14T18:22:07.213Z,4.13
2023-02-14T18:24:33.794Z,4.06
2023-02-14T18:27:00.348Z,4.02
2023-02-14T18:29:26.960Z,3.98
2023-02-14T18:31:53.751Z,3.99
2023-02-14T18:34:20.429Z,3.64
2023-02-14T18:36:49.383Z,3.57
2023-02-14T18:39:21.645Z,3.77
2023-02-14T18:42:01.489Z,3.79
2023-02-14T18:44:34.387Z,3.42
2023-02-14T18:47:04.928Z,3.53
2023-02-14T18:49:41.916Z,3.38
2023-02-14T18:52:20.467Z,3.25
2023-02-14T18:57:45.562Z,3.21
2023-02-14T19:00:12.933Z,3.51
2023-02-14T19:02:39.540Z,3.43
2023-02-14T19:05:07.945Z,3.38
2023-02-14T19:07:35.708Z,3.31
2023-02-14T19:10:04.038Z,3.25
2023-02-14T19:12:33.253Z,3.22
2023-02-14T19:15:01.471Z,3.20
2023-02-14T19:17:28.115Z,3.19
2023-02-14T19:19:55.378Z,3.17
2023-02-14T19:22:22.651Z,3.08
2023-02-14T19:29:22.641Z,2.68
2023-02-14T19:31:54.807Z,2.68
2023-02-14T19:34:29.305Z,2.56
2023-02-14T19:38:41.890Z,2.80
2023-02-14T19:39:53.877Z,2.53
2023-02-14T19:42:34.789Z,2.51
2023-02-14T19:48:25.212Z,2.37
2023-02-14T19:50:58.149Z,2.53
2023-02-14T19:53:27.703Z,2.48
2023-02-14T19:55:54.350Z,2.49
2023-02-14T19:58:28.379Z,2.43
2023-02-14T20:00:59.976Z,2.46
2023-02-14T20:03:27.092Z,2.52
2023-02-14T20:05:53.687Z,2.42
2023-02-14T20:08:20.328Z,2.45
2023-02-14T20:10:51.247Z,2.19
2023-02-14T20:13:17.800Z,2.40
2023-02-14T20:15:45.636Z,2.31
2023-02-14T20:18:12.377Z,2.30
2023-02-14T20:21:03.154Z,2.27
2023-02-14T20:23:32.278Z,2.27
2023-02-14T20:25:58.815Z,2.15
2023-02-14T20:28:25.380Z,2.16
2023-02-14T20:30:54.299Z,2.13
2023-02-14T20:33:20.997Z,2.08
2023-02-14T20:35:47.549Z,2.06
2023-02-14T20:38:14.135Z,2.01
2023-02-14T20:40:42.752Z,2.03
2023-02-14T20:43:12.444Z,2.00
2023-02-14T20:45:41.698Z,1.84
2023-02-14T20:48:08.545Z,1.84
2023-02-14T20:50:35.527Z,1.77
2023-02-14T20:53:02.105Z,1.80
2023-02-14T20:55:31.069Z,1.80
2023-02-14T20:58:02.379Z,1.77
2023-02-14T21:00:30.068Z,1.80
2023-02-14T21:02:57.357Z,1.57
2023-02-14T21:05:26.176Z,1.58
2023-02-14T21:07:52.716Z,1.74
2023-02-14T21:10:19.294Z,1.45
2023-02-14T21:12:46.008Z,1.61
2023-02-14T21:15:12.692Z,1.59
2023-02-14T21:17:39.521Z,1.59
2023-02-14T21:20:09.799Z,1.53
2023-02-14T21:22:37.631Z,1.53
2023-02-14T21:25:05.794Z,1.28
2023-02-14T21:27:32.392Z,1.29
2023-02-14T21:29:59.007Z,1.46
2023-02-14T21:32:28.400Z,1.30
2023-02-14T21:34:58.296Z,1.38
2023-02-14T21:37:25.051Z,1.18
2023-02-14T21:39:51.717Z,1.19
2023-02-14T21:42:18.748Z,1.37
2023-02-14T21:45:05.601Z,1.27
2023-02-14T21:47:37.030Z,1.31
2023-02-14T21:50:24.082Z,1.24
2023-02-14T21:52:53.146Z,1.07
2023-02-14T21:55:20.931Z,1.07
2023-02-14T21:57:47.470Z,0.98
2023-02-14T22:00:14.297Z,1.18
2023-02-14T22:02:41.146Z,0.99
2023-02-14T22:05:08.164Z,1.09
2023-02-14T22:07:35.137Z,1.07
2023-02-14T22:10:02.618Z,1.11
2023-02-14T22:12:29.800Z,1.09
2023-02-14T22:15:00.211Z,1.04
2023-02-14T22:17:27.530Z,1.01
2023-02-14T22:19:54.903Z,0.99
2023-02-14T22:22:21.521Z,0.90
2023-02-14T22:24:48.510Z,0.90
2023-02-14T22:27:16.228Z,0.90
2023-02-14T22:29:42.932Z,0.82
2023-02-14T22:32:09.776Z,0.82
2023-02-14T22:34:36.527Z,0.83
2023-02-14T22:37:03.295Z,0.86
2023-02-14T22:39:29.977Z,0.70
2023-02-14T22:41:56.600Z,0.50
2023-02-14T22:44:32.018Z,0.38
2023-02-14T22:47:04.503Z,0.63
2023-02-14T22:49:31.397Z,0.71
2023-02-14T22:51:58.037Z,0.71
2023-02-14T22:54:24.622Z,0.48
2023-02-14T22:57:02.406Z,0.36
2023-02-14T22:59:40.278Z,0.69
2023-02-14T23:02:07.297Z,0.62
2023-02-14T23:04:35.884Z,0.44
2023-02-14T23:07:05.577Z,0.37
2023-02-14T23:09:36.733Z,0.21
2023-02-14T23:12:03.626Z,0.30
2023-02-14T23:14:48.857Z,0.48
2023-02-14T23:17:16.149Z,0.47
2023-02-14T23:20:01.772Z,0.48
2023-02-14T23:22:31.350Z,0.49
2023-02-14T23:25:00.483Z,0.45
2023-02-14T23:27:38.987Z,0.44
2023-02-14T23:30:07.634Z,0.47
2023-02-14T23:32:34.469Z,0.46
2023-02-14T23:35:01.003Z,0.39
2023-02-14T23:37:27.780Z,0.45
2023-02-14T23:39:54.477Z,0.34
2023-02-14T23:42:21.042Z,0.28
2023-02-14T23:44:47.778Z,0.40
2023-02-14T23:47:14.947Z,0.35
2023-02-14T23:49:41.993Z,0.30
2023-02-14T23:52:11.220Z,0.29
2023-02-14T23:54:38.296Z,0.14
2023-02-14T23:57:06.170Z,0.27
2023-02-14T23:59:32.758Z,0.28
